Time;durP1;ratioP1;P1;durP2;ratioP2;P2;SDS_P1;SDS_P2;PMS_P1;PMS_P2;Temp;Humidity;BMP_temperature;BMP_pressure;BME280_temperature;BME280_humidity;BME280_pressure;Samples;Min_cycle;Max_cycle;Signal;HPM_P1;HPM_P2
2021/10/21 00:02:16;;;;;;;6.53;1.20;;;12.10;78.40;;;;;;5097494;28;20398;-78
2021/10/21 00:04:42;;;;;;;5.30;1.05;;;12.10;78.70;;;;;;5097436;28;20028;-78
2021/10/21 00:07:09;;;;;;;10.45;1.70;;;12.10;79.00;;;;;;5097510;28;20024;-78
2021/10/21 00:09:35;;;;;;;7.20;1.48;;;12.10;79.30;;;;;;5096981;28;20020;-78
2021/10/21 00:12:03;;;;;;;5.93;1.27;;;12.00;79.80;;;;;;5097417;28;20024;-78
2021/10/21 00:14:29;;;;;;;4.30;1.48;;;12.00;80.40;;;;;;5098544;28;20490;-77
2021/10/21 00:16:55;;;;;;;6.75;1.35;;;12.00;80.70;;;;;;5101670;28;20024;-77
2021/10/21 00:19:21;;;;;;;5.38;1.23;;;11.90;80.90;;;;;;5101409;28;20027;-77
2021/10/21 00:21:48;;;;;;;7.68;1.92;;;11.90;81.20;;;;;;5101477;28;20448;-77
2021/10/21 00:24:15;;;;;;;5.65;1.50;;;11.80;81.50;;;;;;5100909;28;20024;-77
2021/10/21 00:26:41;;;;;;;9.38;2.55;;;11.80;81.90;;;;;;5101656;28;20020;-77
2021/10/21 00:29:07;;;;;;;7.15;1.50;;;11.80;82.00;;;;;;5101289;28;20106;-77
2021/10/21 00:31:33;;;;;;;11.80;2.15;;;11.80;82.50;;;;;;5101298;28;20058;-77
2021/10/21 00:33:59;;;;;;;10.70;2.95;;;11.70;82.80;;;;;;5083242;28;20024;-77
2021/10/21 00:36:25;;;;;;;8.93;1.90;;;11.70;83.00;;;;;;5081088;28;20063;-77
2021/10/21 00:38:50;;;;;;;11.02;2.08;;;11.70;82.90;;;;;;5080439;28;21047;-78
2021/10/21 00:41:16;;;;;;;10.98;1.92;;;11.70;83.20;;;;;;5080784;28;20032;-77
2021/10/21 00:43:42;;;;;;;8.60;1.88;;;11.70;83.10;;;;;;5092284;28;20024;-77
2021/10/21 00:46:11;;;;;;;11.95;2.25;;;11.70;83.30;;;;;;5080792;28;20028;-78
2021/10/21 00:48:39;;;;;;;12.23;2.28;;;11.70;83.40;;;;;;5080561;28;20008;-78
2021/10/21 00:51:10;;;;;;;10.80;1.95;;;11.70;83.60;;;;;;5092215;28;20032;-77
2021/10/21 00:53:37;;;;;;;8.85;1.95;;;11.60;83.60;;;;;;5100427;28;20016;-77
2021/10/21 00:56:04;;;;;;;12.23;2.63;;;11.60;83.70;;;;;;5100908;28;20478;-78
2021/10/21 00:58:32;;;;;;;9.77;2.30;;;11.60;83.90;;;;;;5100699;28;20016;-78
2021/10/21 01:00:59;;;;;;;5.65;1.95;;;11.70;83.90;;;;;;5100715;28;20032;-77
2021/10/21 01:03:25;;;;;;;13.65;2.03;;;11.60;83.90;;;;;;5100541;28;20023;-77
2021/10/21 01:05:51;;;;;;;8.43;2.05;;;11.60;83.90;;;;;;5100599;28;20024;-77
2021/10/21 01:08:17;;;;;;;15.98;2.63;;;11.60;84.80;;;;;;5100277;28;20027;-77
2021/10/21 01:10:43;;;;;;;10.45;2.22;;;11.60;84.30;;;;;;5100429;28;20032;-77
2021/10/21 01:13:09;;;;;;;16.13;2.72;;;11.60;84.20;;;;;;5100399;28;20020;-77
2021/10/21 01:15:35;;;;;;;11.80;2.30;;;11.60;84.10;;;;;;5100580;28;20543;-78
2021/10/21 01:18:02;;;;;;;12.85;2.13;;;11.60;84.30;;;;;;5100342;28;20449;-78
2021/10/21 01:20:29;;;;;;;10.18;2.17;;;11.60;84.50;;;;;;5100350;28;20024;-78
2021/10/21 01:22:54;;;;;;;15.23;3.03;;;11.50;84.40;;;;;;5099916;28;20026;-77
2021/10/21 01:25:21;;;;;;;13.35;2.30;;;11.60;84.60;;;;;;5099694;28;20486;-78
2021/10/21 01:27:48;;;;;;;10.27;1.75;;;11.50;84.60;;;;;;5099483;28;20078;-78
2021/10/21 01:30:21;;;;;;;11.77;2.22;;;11.60;84.60;;;;;;5100216;28;20035;-78
2021/10/21 01:32:48;;;;;;;10.57;2.17;;;11.50;84.50;;;;;;5093107;28;20032;-78
2021/10/21 01:35:15;;;;;;;12.88;2.25;;;11.50;84.50;;;;;;5080116;28;20054;-77
2021/10/21 01:37:42;;;;;;;16.60;2.58;;;11.50;84.50;;;;;;5079430;28;20055;-77
2021/10/21 01:40:10;;;;;;;16.20;3.20;;;11.50;84.50;;;;;;5079665;28;20021;-77
2021/10/21 01:42:39;;;;;;;12.85;2.53;;;11.60;84.50;;;;;;5086922;28;20028;-77
2021/10/21 01:45:15;;;;;;;11.02;2.55;;;11.60;84.40;;;;;;5085091;28;20055;-77
2021/10/21 01:47:41;;;;;;;11.40;2.92;;;11.50;84.50;;;;;;5078356;28;20017;-77
2021/10/21 01:50:07;;;;;;;18.10;3.10;;;11.60;84.60;;;;;;5078136;28;20035;-77
2021/10/21 01:52:33;;;;;;;12.30;3.08;;;11.50;84.60;;;;;;5078132;28;20059;-77
2021/10/21 01:54:59;;;;;;;14.18;2.97;;;11.50;84.70;;;;;;5080954;28;20418;-77
2021/10/21 01:57:25;;;;;;;13.25;2.97;;;11.50;84.80;;;;;;5079511;28;20021;-77
2021/10/21 01:59:50;;;;;;;20.38;4.75;;;11.50;85.00;;;;;;5077981;28;20116;-77
2021/10/21 02:02:16;;;;;;;15.85;3.75;;;11.40;85.00;;;;;;5079259;28;20365;-77
2021/10/21 02:04:42;;;;;;;13.25;3.10;;;11.30;85.10;;;;;;5079189;28;20025;-78
2021/10/21 02:07:08;;;;;;;11.45;3.30;;;11.40;85.50;;;;;;5079355;28;20529;-78
2021/10/21 02:09:33;;;;;;;10.52;3.03;;;11.30;85.50;;;;;;5078759;28;20037;-77
2021/10/21 02:11:59;;;;;;;12.73;3.22;;;11.30;85.50;;;;;;5079438;28;20067;-78
2021/10/21 02:14:25;;;;;;;13.40;2.95;;;11.30;85.80;;;;;;5079005;28;20052;-77
2021/10/21 02:16:51;;;;;;;19.10;2.95;;;11.20;85.60;;;;;;5079359;28;20095;-77
2021/10/21 02:19:17;;;;;;;11.40;3.10;;;11.20;85.80;;;;;;5078888;28;20028;-78
2021/10/21 02:21:43;;;;;;;16.73;4.03;;;11.20;86.50;;;;;;5079042;28;20031;-78
2021/10/21 02:24:08;;;;;;;18.60;3.42;;;11.10;85.80;;;;;;5078306;28;20923;-77
2021/10/21 02:26:34;;;;;;;12.98;2.67;;;11.10;86.00;;;;;;5079125;28;20020;-77
2021/10/21 02:29:00;;;;;;;16.17;3.53;;;11.10;86.10;;;;;;5078734;28;20031;-77
2021/10/21 02:31:26;;;;;;;14.68;3.30;;;11.10;86.40;;;;;;5078877;28;20028;-77
2021/10/21 02:33:52;;;;;;;12.82;2.67;;;11.00;86.40;;;;;;5080430;28;20032;-77
2021/10/21 02:36:18;;;;;;;15.32;2.58;;;11.00;86.60;;;;;;5077132;28;20052;-78
2021/10/21 02:38:43;;;;;;;16.40;3.28;;;11.00;86.80;;;;;;5077721;28;20028;-77
2021/10/21 02:41:09;;;;;;;17.23;4.68;;;11.00;86.80;;;;;;5078721;28;20028;-78
2021/10/21 02:43:35;;;;;;;13.82;2.75;;;10.90;87.00;;;;;;5090780;28;20092;-77
2021/10/21 02:46:02;;;;;;;15.60;3.85;;;10.90;87.10;;;;;;5079091;28;20023;-78
2021/10/21 02:48:29;;;;;;;16.42;3.70;;;11.00;87.30;;;;;;5078521;28;20012;-77
2021/10/21 02:50:55;;;;;;;12.38;2.30;;;10.90;87.10;;;;;;5088792;28;20020;-77
2021/10/21 02:53:20;;;;;;;10.57;3.10;;;10.90;87.00;;;;;;5098290;28;20059;-77
2021/10/21 02:55:46;;;;;;;11.20;2.30;;;10.90;87.10;;;;;;5098562;28;20024;-78
2021/10/21 02:58:12;;;;;;;18.67;3.03;;;10.90;87.20;;;;;;5098420;28;20027;-78
2021/10/21 03:00:38;;;;;;;8.23;2.72;;;10.90;87.30;;;;;;5098439;28;20028;-77
2021/10/21 03:03:04;;;;;;;16.52;2.65;;;10.90;87.20;;;;;;5098270;28;20048;-77
2021/10/21 03:05:29;;;;;;;8.23;2.50;;;10.90;87.20;;;;;;5098472;28;20075;-77
2021/10/21 03:07:55;;;;;;;12.77;2.55;;;10.90;87.30;;;;;;5098076;28;20016;-77
2021/10/21 03:10:21;;;;;;;13.80;2.40;;;10.80;87.10;;;;;;5096962;28;20074;-77
2021/10/21 03:12:47;;;;;;;17.02;3.42;;;10.80;87.20;;;;;;5096793;28;20036;-78
2021/10/21 03:15:13;;;;;;;12.48;2.75;;;10.70;87.10;;;;;;5098272;28;20031;-77
2021/10/21 03:17:42;;;;;;;16.63;2.88;;;10.80;87.20;;;;;;5098210;28;20402;-77
2021/10/21 03:20:14;;;;;;;12.55;2.65;;;10.70;87.10;;;;;;5098191;28;20048;-77
2021/10/21 03:22:41;;;;;;;11.10;2.67;;;10.70;87.10;;;;;;5097593;28;20049;-77
2021/10/21 03:25:08;;;;;;;12.05;2.78;;;10.70;87.10;;;;;;5097968;28;20020;-77
2021/10/21 03:27:35;;;;;;;13.45;3.20;;;10.70;87.30;;;;;;5097898;28;20020;-77
2021/10/21 03:30:02;;;;;;;17.20;2.38;;;10.70;87.50;;;;;;5097973;28;20378;-77
2021/10/21 03:32:28;;;;;;;18.70;3.25;;;10.60;87.40;;;;;;5092513;28;20024;-77
2021/10/21 03:34:54;;;;;;;11.75;2.53;;;10.60;87.50;;;;;;5077655;28;20108;-77
2021/10/21 03:37:20;;;;;;;9.90;3.05;;;10.50;87.40;;;;;;5077483;28;20086;-77
2021/10/21 03:39:49;;;;;;;12.43;2.30;;;10.50;87.40;;;;;;5077229;28;20016;-77
2021/10/21 03:42:20;;;;;;;14.13;3.08;;;10.50;87.50;;;;;;5081309;28;20047;-77
2021/10/21 03:44:46;;;;;;;11.05;2.47;;;10.50;87.70;;;;;;5085166;28;20589;-77
2021/10/21 03:47:12;;;;;;;15.98;2.88;;;10.50;87.90;;;;;;5077525;28;20040;-77
2021/10/21 03:49:38;;;;;;;16.83;3.38;;;10.40;88.10;;;;;;5076796;28;20021;-77
2021/10/21 03:52:05;;;;;;;14.77;2.50;;;10.40;88.10;;;;;;5097193;28;20039;-77
2021/10/21 03:54:31;;;;;;;12.38;2.67;;;10.40;88.00;;;;;;5097273;28;20027;-77
2021/10/21 03:56:58;;;;;;;9.55;3.38;;;10.40;88.20;;;;;;5097749;28;20080;-77
2021/10/21 03:59:24;;;;;;;12.70;2.97;;;10.40;88.50;;;;;;5097571;28;20108;-77
2021/10/21 04:01:52;;;;;;;10.60;2.15;;;10.40;88.70;;;;;;5097380;28;20098;-77
2021/10/21 04:04:18;;;;;;;16.55;2.80;;;10.40;88.50;;;;;;5097385;28;20024;-77
2021/10/21 04:06:44;;;;;;;13.75;2.55;;;10.40;88.50;;;;;;5097692;28;20024;-77
2021/10/21 04:09:10;;;;;;;14.38;2.95;;;10.40;88.70;;;;;;5097107;28;20055;-76
2021/10/21 04:11:36;;;;;;;15.75;2.65;;;10.40;89.00;;;;;;5097509;28;20110;-77
2021/10/21 04:14:02;;;;;;;19.23;4.45;;;10.40;89.10;;;;;;5097465;28;20016;-77
2021/10/21 04:16:28;;;;;;;11.70;2.90;;;10.40;89.40;;;;;;5097401;28;20051;-77
2021/10/21 04:18:54;;;;;;;15.43;2.72;;;10.40;89.70;;;;;;5097443;28;20024;-77
2021/10/21 04:21:20;;;;;;;10.45;2.65;;;10.40;89.80;;;;;;5097269;28;20112;-76
2021/10/21 04:23:46;;;;;;;18.05;2.90;;;10.40;89.70;;;;;;5096962;28;20048;-77
2021/10/21 04:26:12;;;;;;;25.67;3.00;;;10.40;89.50;;;;;;5097310;28;20047;-76
2021/10/21 04:28:38;;;;;;;17.45;3.20;;;10.50;89.70;;;;;;5097409;28;20027;-77
2021/10/21 04:31:04;;;;;;;13.15;2.45;;;10.50;89.90;;;;;;5097287;28;20161;-76
2021/10/21 04:33:30;;;;;;;26.63;3.92;;;10.50;89.50;;;;;;5083951;28;20509;-78
2021/10/21 04:35:56;;;;;;;15.52;2.63;;;10.50;89.60;;;;;;5083754;28;20039;-76
2021/10/21 04:38:22;;;;;;;17.58;3.38;;;10.50;89.50;;;;;;5097067;28;20526;-74
2021/10/21 04:40:48;;;;;;;14.35;2.47;;;10.50;89.40;;;;;;5097051;28;20136;-76
2021/10/21 04:43:14;;;;;;;13.15;3.00;;;10.50;89.30;;;;;;5097067;28;20028;-76
2021/10/21 04:45:40;;;;;;;18.58;2.67;;;10.50;89.40;;;;;;5076998;28;20025;-75
2021/10/21 04:48:06;;;;;;;12.70;2.53;;;10.50;89.30;;;;;;5076886;28;20016;-76
2021/10/21 04:50:33;;;;;;;16.23;3.00;;;10.50;89.30;;;;;;5084086;28;20094;-75
2021/10/21 04:52:59;;;;;;;24.00;3.78;;;10.50;89.60;;;;;;5096801;28;20024;-75
2021/10/21 04:55:26;;;;;;;11.73;2.38;;;10.50;89.60;;;;;;5097122;28;20074;-72
2021/10/21 04:57:52;;;;;;;13.27;3.00;;;10.50;89.30;;;;;;5096980;28;20021;-72
2021/10/21 05:00:19;;;;;;;12.15;2.42;;;10.50;89.50;;;;;;5098048;28;20020;-72
2021/10/21 05:02:45;;;;;;;14.50;2.72;;;10.50;89.40;;;;;;5100626;28;20028;-73
2021/10/21 05:05:12;;;;;;;9.57;2.75;;;10.50;89.50;;;;;;5100841;28;20049;-73
2021/10/21 05:07:38;;;;;;;14.23;3.20;;;10.40;89.20;;;;;;5100354;28;20020;-73
2021/10/21 05:10:05;;;;;;;12.25;3.20;;;10.50;89.50;;;;;;5100659;28;20028;-73
2021/10/21 05:12:32;;;;;;;11.25;2.92;;;10.40;89.20;;;;;;5100458;28;20028;-72
2021/10/21 05:14:57;;;;;;;10.10;2.65;;;10.40;89.00;;;;;;5100688;28;20059;-73
2021/10/21 05:17:23;;;;;;;12.77;2.97;;;10.30;88.90;;;;;;5100507;28;20028;-72
2021/10/21 05:19:50;;;;;;;15.20;2.78;;;10.30;88.80;;;;;;5100633;28;20574;-73
2021/10/21 05:22:16;;;;;;;14.27;2.50;;;10.30;88.70;;;;;;5100304;28;20488;-72
2021/10/21 05:24:42;;;;;;;17.48;2.60;;;10.30;88.60;;;;;;5100196;28;20050;-72
2021/10/21 05:27:12;;;;;;;12.27;3.47;;;10.20;89.00;;;;;;5100254;28;20020;-72
2021/10/21 05:29:38;;;;;;;9.38;2.50;;;10.20;89.00;;;;;;5100535;28;20039;-72
2021/10/21 05:32:07;;;;;;;11.35;2.72;;;10.20;89.00;;;;;;5098701;28;20020;-73
2021/10/21 05:34:37;;;;;;;12.40;2.78;;;10.20;89.10;;;;;;5079932;28;20054;-72
2021/10/21 05:37:05;;;;;;;14.38;4.03;;;10.20;89.50;;;;;;5079644;28;20080;-72
2021/10/21 05:39:31;;;;;;;10.35;2.47;;;10.20;89.60;;;;;;5079523;28;20033;-73
2021/10/21 05:41:57;;;;;;;18.75;2.70;;;10.20;89.60;;;;;;5079642;28;20486;-73
2021/10/21 05:44:24;;;;;;;11.68;2.72;;;10.20;89.80;;;;;;5090711;28;20020;-72
2021/10/21 05:46:50;;;;;;;16.10;3.15;;;10.30;90.00;;;;;;5079570;28;20035;-73
2021/10/21 05:49:17;;;;;;;10.52;2.30;;;10.30;90.10;;;;;;5079825;28;20063;-73
2021/10/21 05:51:43;;;;;;;16.88;3.80;;;10.40;90.20;;;;;;5095066;28;20443;-74
2021/10/21 05:54:08;;;;;;;18.27;3.13;;;10.40;90.10;;;;;;5098411;28;20115;-74
2021/10/21 05:56:34;;;;;;;13.23;2.53;;;10.50;90.20;;;;;;5099699;28;20035;-73
2021/10/21 05:59:00;;;;;;;13.82;2.42;;;10.50;90.20;;;;;;5098670;28;20583;-72
2021/10/21 06:01:26;;;;;;;16.45;3.08;;;10.60;90.10;;;;;;5099459;28;20032;-73
2021/10/21 06:03:51;;;;;;;13.98;3.17;;;10.60;90.00;;;;;;5099612;28;20020;-72
2021/10/21 06:06:17;;;;;;;16.35;3.95;;;10.50;90.00;;;;;;5098412;28;20024;-73
2021/10/21 06:08:45;;;;;;;18.15;3.15;;;10.60;90.10;;;;;;5097979;28;20016;-73
2021/10/21 06:11:11;;;;;;;17.10;2.45;;;10.60;90.20;;;;;;5099444;28;20497;-73
2021/10/21 06:13:37;;;;;;;12.70;2.75;;;10.60;90.10;;;;;;5097383;28;20024;-73
2021/10/21 06:16:04;;;;;;;14.85;2.70;;;10.60;90.10;;;;;;5097996;28;20126;-73
2021/10/21 06:18:31;;;;;;;11.85;2.22;;;10.60;90.00;;;;;;5098057;28;20023;-73
2021/10/21 06:20:57;;;;;;;14.10;2.72;;;10.70;90.10;;;;;;5099095;28;20031;-73
2021/10/21 06:23:24;;;;;;;17.77;2.35;;;10.70;90.00;;;;;;5099140;28;20020;-73
2021/10/21 06:25:50;;;;;;;10.00;2.20;;;10.70;90.00;;;;;;5099037;28;20016;-73
2021/10/21 06:28:16;;;;;;;16.42;3.30;;;10.70;89.90;;;;;;5099463;28;20522;-73
2021/10/21 06:30:42;;;;;;;15.38;2.50;;;10.70;89.70;;;;;;5099043;28;20034;-73
2021/10/21 06:33:09;;;;;;;14.13;2.78;;;10.80;90.00;;;;;;5088432;28;20020;-73
2021/10/21 06:35:35;;;;;;;20.88;2.95;;;10.80;90.00;;;;;;5077537;28;20048;-72
2021/10/21 06:38:01;;;;;;;16.58;3.40;;;10.80;89.90;;;;;;5078979;28;20403;-72
2021/10/21 06:40:27;;;;;;;23.23;3.58;;;10.90;89.80;;;;;;5077111;28;20116;-73
2021/10/21 06:42:53;;;;;;;11.85;2.20;;;11.00;89.70;;;;;;5088013;28;20535;-73
2021/10/21 06:45:20;;;;;;;13.93;3.45;;;11.00;89.60;;;;;;5081372;28;20036;-72
2021/10/21 06:47:46;;;;;;;13.55;2.70;;;11.10;89.30;;;;;;5078527;28;20032;-72
2021/10/21 06:50:13;;;;;;;11.02;2.78;;;11.10;89.10;;;;;;5082492;28;20024;-73
2021/10/21 06:52:40;;;;;;;13.20;2.35;;;11.10;88.80;;;;;;5097069;28;20016;-73
2021/10/21 06:55:07;;;;;;;15.40;2.30;;;11.10;88.80;;;;;;5097086;28;20059;-73
2021/10/21 06:57:44;;;;;;;15.43;2.40;;;11.10;88.70;;;;;;5097336;28;20082;-73
2021/10/21 07:00:11;;;;;;;13.30;2.25;;;11.20;88.70;;;;;;5098474;28;20024;-73
2021/10/21 07:02:36;;;;;;;14.27;3.22;;;11.20;88.70;;;;;;5098639;28;20418;-73
2021/10/21 07:05:02;;;;;;;9.70;2.20;;;11.20;88.70;;;;;;5098471;28;20077;-73
2021/10/21 07:07:28;;;;;;;13.95;2.95;;;11.30;89.10;;;;;;5098376;28;20028;-72
2021/10/21 07:09:55;;;;;;;14.98;2.88;;;11.30;88.80;;;;;;5098257;28;20028;-73
2021/10/21 07:12:20;;;;;;;14.75;2.58;;;11.40;88.90;;;;;;5098191;28;20024;-73
2021/10/21 07:14:46;;;;;;;15.88;2.15;;;11.40;88.90;;;;;;5098414;28;20024;-73
2021/10/21 07:17:12;;;;;;;18.50;2.70;;;11.50;88.80;;;;;;5098212;28;20078;-72
2021/10/21 07:19:38;;;;;;;14.75;2.92;;;11.60;88.70;;;;;;5098591;28;20055;-73
2021/10/21 07:22:04;;;;;;;15.77;2.63;;;11.60;88.50;;;;;;5098311;28;20451;-73
2021/10/21 07:24:29;;;;;;;14.80;2.90;;;11.60;88.40;;;;;;5097987;28;20429;-72
2021/10/21 07:26:56;;;;;;;15.32;3.33;;;11.70;88.40;;;;;;5098113;28;20035;-72
2021/10/21 07:29:22;;;;;;;16.42;2.42;;;11.80;88.40;;;;;;5098049;28;20024;-73
2021/10/21 07:31:48;;;;;;;12.05;2.90;;;11.80;88.30;;;;;;5097725;28;20028;-73
2021/10/21 07:34:13;;;;;;;19.85;2.95;;;11.80;88.30;;;;;;5077714;28;20032;-73
2021/10/21 07:36:39;;;;;;;13.90;2.53;;;11.90;88.20;;;;;;5077673;28;20048;-72
2021/10/21 07:39:06;;;;;;;19.92;3.08;;;12.00;88.30;;;;;;5076093;28;20031;-72
2021/10/21 07:41:31;;;;;;;22.10;3.53;;;12.00;88.20;;;;;;5076165;28;20109;-72
2021/10/21 07:43:57;;;;;;;15.77;2.45;;;12.10;88.10;;;;;;5088667;28;20028;-72
2021/10/21 07:46:23;;;;;;;16.55;3.10;;;12.10;88.00;;;;;;5077656;28;20032;-73
2021/10/21 07:48:50;;;;;;;16.45;2.80;;;12.10;88.00;;;;;;5077554;28;20147;-73
2021/10/21 07:51:17;;;;;;;20.88;3.92;;;12.10;87.90;;;;;;5089178;28;20372;-73
2021/10/21 07:53:42;;;;;;;15.85;3.58;;;12.20;87.80;;;;;;5097363;28;20111;-73
2021/10/21 07:56:08;;;;;;;18.38;2.85;;;12.20;87.90;;;;;;5097619;28;20066;-73
2021/10/21 07:58:34;;;;;;;15.82;2.92;;;12.30;87.90;;;;;;5097545;28;20103;-73
2021/10/21 08:01:00;;;;;;;13.30;3.15;;;12.30;87.80;;;;;;5097989;28;20031;-73
2021/10/21 08:03:26;;;;;;;18.88;3.03;;;12.40;87.90;;;;;;5097438;28;20029;-73
2021/10/21 08:05:51;;;;;;;19.80;3.35;;;12.40;87.90;;;;;;5097662;28;20481;-74
2021/10/21 08:08:17;;;;;;;14.98;3.05;;;12.40;88.10;;;;;;5096242;28;20012;-72
2021/10/21 08:10:43;;;;;;;10.18;2.42;;;12.50;88.10;;;;;;5097546;28;20059;-73
2021/10/21 08:13:11;;;;;;;13.70;2.70;;;12.50;88.80;;;;;;5097408;28;20020;-72
2021/10/21 08:15:37;;;;;;;20.80;3.90;;;12.50;88.40;;;;;;5097370;28;20477;-73
2021/10/21 08:18:03;;;;;;;15.30;2.55;;;12.60;88.40;;;;;;5096088;28;20024;-73
2021/10/21 08:20:29;;;;;;;17.88;3.15;;;12.60;88.40;;;;;;5097432;28;20028;-72
2021/10/21 08:22:55;;;;;;;19.05;3.67;;;12.60;88.60;;;;;;5096896;28;20048;-73
2021/10/21 08:25:24;;;;;;;19.02;2.75;;;12.70;88.80;;;;;;5097497;28;20020;-72
2021/10/21 08:27:51;;;;;;;17.27;3.03;;;12.60;88.80;;;;;;5097584;28;20028;-73
2021/10/21 08:30:22;;;;;;;22.27;3.05;;;12.70;89.20;;;;;;5097552;28;20024;-73
2021/10/21 08:32:48;;;;;;;14.02;3.63;;;12.80;89.30;;;;;;5089240;28;20024;-72
2021/10/21 08:35:15;;;;;;;14.18;2.25;;;12.90;89.60;;;;;;5077726;28;20036;-72
2021/10/21 08:37:42;;;;;;;16.48;2.95;;;13.00;89.50;;;;;;5080546;28;20411;-73
2021/10/21 08:40:08;;;;;;;15.63;4.13;;;13.20;89.60;;;;;;5079616;28;20025;-73
2021/10/21 08:42:34;;;;;;;17.90;2.75;;;13.20;89.50;;;;;;5087663;28;20058;-73
2021/10/21 08:45:00;;;;;;;12.88;2.60;;;13.40;89.60;;;;;;5084526;28;20025;-73
2021/10/21 08:47:28;;;;;;;20.25;3.30;;;13.60;89.20;;;;;;5080935;28;20113;-73
2021/10/21 08:49:55;;;;;;;17.67;2.80;;;13.70;88.80;;;;;;5080481;28;20399;-75
2021/10/21 08:52:22;;;;;;;26.48;9.18;;;13.90;88.50;;;;;;5079067;28;20507;-74
2021/10/21 08:54:48;;;;;;;14.70;4.35;;;14.10;88.20;;;;;;5079395;28;20058;-73
2021/10/21 08:57:14;;;;;;;17.55;3.78;;;14.20;88.10;;;;;;5094224;28;20474;-73
2021/10/21 08:59:42;;;;;;;17.13;2.40;;;14.40;88.10;;;;;;5094129;28;20076;-73
2021/10/21 09:02:55;;;;;;;17.90;2.55;;;14.60;86.70;;;;;;5080220;28;20032;-74
2021/10/21 09:05:31;;;;;;;13.05;2.10;;;14.80;85.60;;;;;;5082008;28;20595;-73
2021/10/21 09:08:13;;;;;;;18.23;2.63;;;15.00;84.90;;;;;;5079522;28;20044;-72
2021/10/21 09:10:53;;;;;;;12.18;2.65;;;15.00;84.70;;;;;;5080247;28;20016;-73
2021/10/21 09:13:38;;;;;;;20.35;3.60;;;15.10;84.40;;;;;;5087742;28;20024;-72
2021/10/21 09:16:09;;;;;;;17.48;3.00;;;15.00;84.20;;;;;;5100255;28;20021;-72
2021/10/21 09:18:42;;;;;;;13.38;3.03;;;15.00;83.80;;;;;;5100669;28;20020;-72
2021/10/21 09:21:09;;;;;;;12.68;2.90;;;15.10;85.00;;;;;;5093822;28;20031;-73
2021/10/21 09:23:35;;;;;;;14.45;3.30;;;15.30;85.20;;;;;;5077238;28;20033;-75
2021/10/21 09:26:09;;;;;;;13.75;3.03;;;15.50;85.30;;;;;;5097544;28;20020;-75
2021/10/21 09:28:36;;;;;;;17.02;3.38;;;15.80;84.20;;;;;;5086221;28;20040;-74
2021/10/21 09:31:05;;;;;;;16.77;2.72;;;16.00;84.00;;;;;;5084433;28;20025;-74
2021/10/21 09:33:57;;;;;;;12.18;2.50;;;16.20;83.80;;;;;;5095078;28;20031;-74
2021/10/21 09:36:23;;;;;;;15.20;2.57;;;16.50;83.00;;;;;;5082661;28;20147;-74
2021/10/21 09:38:54;;;;;;;11.93;3.22;;;16.60;82.70;;;;;;5092120;28;20293;-74
2021/10/21 09:41:26;;;;;;;18.95;3.17;;;16.90;82.50;;;;;;5091870;28;20481;-74
2021/10/21 09:43:53;;;;;;;16.58;3.33;;;17.00;81.90;;;;;;5087268;28;20104;-74
2021/10/21 09:46:31;;;;;;;11.80;2.47;;;17.10;81.00;;;;;;5091905;28;20028;-75
2021/10/21 09:49:21;;;;;;;13.88;2.70;;;17.30;80.00;;;;;;5090181;28;20082;-76
2021/10/21 09:51:49;;;;;;;15.15;2.67;;;17.50;79.10;;;;;;5086916;28;20036;-75
2021/10/21 09:54:17;;;;;;;13.88;2.13;;;17.80;79.80;;;;;;5092279;28;20029;-74
2021/10/21 09:56:59;;;;;;;18.90;2.53;;;18.30;78.40;;;;;;5092877;28;20074;-75
2021/10/21 09:59:26;;;;;;;;;;;18.80;76.60;;;;;;5088835;28;20024;-75
2021/10/21 10:02:04;;;;;;;12.25;2.55;;;19.10;73.80;;;;;;5085935;28;20003;-75
2021/10/21 10:04:30;;;;;;;11.23;2.00;;;19.10;73.00;;;;;;5088690;28;20019;-75
2021/10/21 10:06:59;;;;;;;12.68;2.67;;;18.90;73.70;;;;;;5092657;28;20021;-75
2021/10/21 10:09:32;;;;;;;12.40;1.98;;;18.70;75.00;;;;;;5090136;28;20089;-75
2021/10/21 10:12:04;;;;;;;16.85;3.05;;;18.70;75.60;;;;;;5085459;28;20063;-75
2021/10/21 10:14:30;;;;;;;10.88;1.40;;;18.80;76.00;;;;;;5085992;28;20032;-75
2021/10/21 10:16:59;;;;;;;13.10;2.30;;;18.80;74.00;;;;;;5080116;28;20479;-75
2021/10/21 10:19:27;;;;;;;10.40;1.77;;;18.80;73.30;;;;;;5092431;28;20076;-75
2021/10/21 10:21:54;;;;;;;12.32;2.08;;;18.60;74.20;;;;;;5086602;28;20032;-75
2021/10/21 10:24:32;;;;;;;14.27;1.60;;;18.50;74.40;;;;;;5094160;28;20028;-76
2021/10/21 10:26:59;;;;;;;12.30;1.85;;;18.30;74.20;;;;;;5097546;28;20020;-75
2021/10/21 10:29:30;;;;;;;10.18;1.48;;;18.10;75.10;;;;;;5099001;28;20051;-75
2021/10/21 10:31:58;;;;;;;11.32;2.83;;;17.90;75.70;;;;;;5097339;28;20020;-79
2021/10/21 10:34:34;;;;;;;9.40;1.38;;;17.80;75.80;;;;;;5097469;28;20036;-75
2021/10/21 10:37:15;;;;;;;10.82;3.58;;;17.60;75.70;;;;;;5098910;28;20044;-74
2021/10/21 10:39:59;;;;;;;15.45;1.80;;;17.50;77.40;;;;;;5098341;28;20081;-74
2021/10/21 10:42:37;;;;;;;10.80;1.70;;;17.30;78.80;;;;;;5098661;28;20028;-75
2021/10/21 10:45:12;;;;;;;10.75;2.03;;;17.10;79.70;;;;;;5094509;28;20031;-75
2021/10/21 10:47:42;;;;;;;12.07;1.90;;;16.90;80.90;;;;;;5091061;28;20034;-75
2021/10/21 10:50:17;;;;;;;8.65;1.77;;;16.70;81.70;;;;;;5103847;28;20032;-75
2021/10/21 10:53:09;;;;;;;8.45;1.40;;;16.60;82.40;;;;;;5094722;28;20051;-75
2021/10/21 10:55:52;;;;;;;9.75;1.92;;;16.50;83.40;;;;;;5091696;28;20038;-74
2021/10/21 10:58:26;;;;;;;8.82;1.20;;;16.40;84.20;;;;;;5076588;28;20085;-74
2021/10/21 11:00:59;;;;;;;9.75;1.50;;;16.40;84.50;;;;;;5076803;28;20037;-74
2021/10/21 11:03:33;;;;;;;7.88;2.33;;;16.40;85.00;;;;;;5078384;28;20082;-74
2021/10/21 11:06:04;;;;;;;17.10;2.10;;;16.40;86.10;;;;;;5078324;28;20021;-74
2021/10/21 11:08:48;;;;;;;11.35;1.95;;;16.30;87.00;;;;;;5076677;28;20024;-75
2021/10/21 11:11:59;;;;;;;9.95;1.65;;;16.20;86.20;;;;;;5078112;28;20192;-74
2021/10/21 11:14:31;;;;;;;4.38;1.10;;;16.20;86.60;;;;;;5089936;28;20080;-75
2021/10/21 11:16:58;;;;;;;8.27;1.48;;;16.20;87.00;;;;;;5078699;28;20028;-74
2021/10/21 11:19:45;;;;;;;6.35;1.40;;;16.30;87.00;;;;;;5078027;28;20058;-75
2021/10/21 11:22:20;;;;;;;5.10;1.30;;;16.50;87.60;;;;;;5086703;28;20032;-74
2021/10/21 11:24:49;;;;;;;8.25;1.45;;;16.80;87.10;;;;;;5094683;28;20030;-74
2021/10/21 11:27:30;;;;;;;8.98;1.67;;;17.10;86.80;;;;;;5089021;28;20029;-74
2021/10/21 11:30:09;;;;;;;3.83;1.25;;;17.40;87.20;;;;;;5077765;28;20020;-74
2021/10/21 11:32:36;;;;;;;4.63;1.20;;;17.90;85.70;;;;;;5086017;28;20372;-74
2021/10/21 11:35:10;;;;;;;7.88;1.77;;;18.00;84.60;;;;;;5091409;28;20028;-74
2021/10/21 11:37:47;;;;;;;7.80;1.30;;;18.00;82.90;;;;;;5077044;28;20048;-75
2021/10/21 11:40:34;;;;;;;5.78;1.30;;;17.90;82.00;;;;;;5076249;28;20025;-75
2021/10/21 11:43:06;;;;;;;7.40;1.27;;;17.80;82.40;;;;;;5077424;28;20057;-75
2021/10/21 11:45:37;;;;;;;5.97;1.77;;;17.70;82.70;;;;;;5077594;28;20112;-75
2021/10/21 11:48:07;;;;;;;5.82;1.35;;;17.60;82.20;;;;;;5076580;28;20031;-75
2021/10/21 11:50:42;;;;;;;5.22;0.90;;;17.50;82.40;;;;;;5091060;28;20387;-75
2021/10/21 11:53:11;;;;;;;6.57;1.00;;;17.50;83.10;;;;;;5075830;28;20032;-74
2021/10/21 11:55:38;;;;;;;5.88;1.00;;;17.60;82.70;;;;;;5077193;28;20068;-74
2021/10/21 11:58:24;;;;;;;8.45;1.50;;;17.90;84.00;;;;;;5076161;28;20113;-74
2021/10/21 12:00:52;;;;;;;6.32;1.30;;;18.20;82.40;;;;;;5077195;28;20372;-75
2021/10/21 12:03:18;;;;;;;6.32;1.42;;;18.40;81.20;;;;;;5077508;28;20532;-75
2021/10/21 12:05:44;;;;;;;9.38;1.23;;;18.50;81.40;;;;;;5076030;28;20044;-76
2021/10/21 12:08:19;;;;;;;6.65;0.90;;;18.60;79.70;;;;;;5077063;28;20108;-75
2021/10/21 12:10:46;;;;;;;7.05;1.10;;;18.60;73.10;;;;;;5084764;28;20020;-75
2021/10/21 12:13:28;;;;;;;8.18;1.17;;;18.60;74.40;;;;;;5081260;28;20101;-75
2021/10/21 12:15:57;;;;;;;5.68;0.90;;;18.60;75.30;;;;;;5077398;28;20027;-75
2021/10/21 12:18:25;;;;;;;3.85;0.82;;;18.60;74.80;;;;;;5075842;28;20029;-75
2021/10/21 12:20:53;;;;;;;5.63;1.58;;;18.60;74.90;;;;;;5077166;28;20411;-75
2021/10/21 12:23:47;;;;;;;9.90;1.73;;;18.60;74.10;;;;;;5078578;28;20020;-75
2021/10/21 12:26:30;;;;;;;9.20;1.98;;;18.60;73.80;;;;;;5092714;28;20039;-74
2021/10/21 12:29:08;;;;;;;8.38;1.50;;;18.70;73.40;;;;;;5077220;28;20020;-75
2021/10/21 12:31:36;;;;;;;7.00;1.00;;;18.80;71.10;;;;;;5076250;28;20115;-75
2021/10/21 12:34:09;;;;;;;6.95;1.23;;;18.90;70.70;;;;;;5097033;28;20036;-75
2021/10/21 12:36:42;;;;;;;5.95;1.38;;;19.00;71.70;;;;;;5076904;28;20057;-75
2021/10/21 12:39:11;;;;;;;6.13;1.20;;;19.10;71.80;;;;;;5076710;28;20032;-75
2021/10/21 12:41:56;;;;;;;11.73;1.55;;;19.20;71.70;;;;;;5077024;28;20103;-75
2021/10/21 12:44:27;;;;;;;3.95;1.10;;;19.20;71.50;;;;;;5076928;28;20388;-75
2021/10/21 12:47:25;;;;;;;7.63;1.45;;;19.20;72.20;;;;;;5076996;28;20013;-75